Aviation Digital Data Service (ADDS)

Output produced by METARs form (1926 UTC 26 April 2015)
found at http://aviationweather.gov/adds/metars/
 
KECG 261827Z 2618/2718 01013KT P6SM OVC015 
     FM262100 01010KT P6SM BKN025 OVC060 
     FM262300 35003KT P6SM BKN080 
     FM270200 33003KT P6SM SCT250 
     FM271400 29008KT P6SM SCT250